Time;durP1;ratioP1;P1;durP2;ratioP2;P2;SDS_P1;SDS_P2;PMS_P1;PMS_P2;Temp;Humidity;BMP_temperature;BMP_pressure;BME280_temperature;BME280_humidity;BME280_pressure;Samples;Min_cycle;Max_cycle;Signal;HPM_P1;HPM_P2
2021/12/12 00:02:21;;;;;;;6.30;2.90;;;6.90;99.90;;;;;;5111527;28;20175;-77
2021/12/12 00:04:50;;;;;;;5.77;3.00;;;7.10;99.90;;;;;;5080130;28;20206;-76
2021/12/12 00:07:22;;;;;;;4.27;2.80;;;7.00;99.90;;;;;;5095391;28;20179;-81
2021/12/12 00:09:52;;;;;;;4.03;2.90;;;7.00;99.90;;;;;;5094950;28;20606;-80
2021/12/12 00:12:24;;;;;;;3.13;2.57;;;7.00;99.90;;;;;;5111995;28;20179;-80
2021/12/12 00:14:54;;;;;;;3.67;2.53;;;7.00;99.90;;;;;;5111270;28;20282;-77
2021/12/12 00:17:20;;;;;;;3.40;2.43;;;7.00;99.90;;;;;;5094374;28;20641;-77
2021/12/12 00:19:47;;;;;;;4.17;2.87;;;7.00;99.90;;;;;;5111668;28;20298;-81
2021/12/12 00:22:18;;;;;;;4.37;2.77;;;7.00;99.90;;;;;;5111647;28;20541;-80
2021/12/12 00:24:45;;;;;;;4.53;3.10;;;7.10;99.90;;;;;;5111413;28;20202;-80
2021/12/12 00:27:11;;;;;;;6.17;3.17;;;7.00;99.90;;;;;;5094502;28;20186;-76
2021/12/12 00:29:38;;;;;;;4.83;3.40;;;7.10;99.90;;;;;;5094444;28;20175;-76
2021/12/12 00:32:11;;;;;;;4.57;2.83;;;7.00;99.90;;;;;;5094091;28;20326;-79
2021/12/12 00:34:42;;;;;;;4.37;3.47;;;7.00;99.90;;;;;;5112080;28;20280;-80
2021/12/12 00:37:09;;;;;;;3.77;3.33;;;6.90;99.90;;;;;;5112395;28;20182;-79
2021/12/12 00:39:38;;;;;;;3.97;3.27;;;6.80;99.90;;;;;;5094011;28;20177;-77
2021/12/12 00:42:08;;;;;;;4.20;3.20;;;6.80;99.90;;;;;;5111996;28;20176;-76
2021/12/12 00:44:36;;;;;;;4.87;3.30;;;6.90;99.90;;;;;;5095094;28;20186;-76
2021/12/12 00:47:07;;;;;;;3.97;3.03;;;6.80;99.90;;;;;;5077462;28;20641;-78
2021/12/12 00:49:35;;;;;;;6.30;3.60;;;6.80;99.90;;;;;;5112165;28;20629;-76
2021/12/12 00:52:03;;;;;;;6.50;3.23;;;7.00;99.90;;;;;;5112998;28;20258;-76
2021/12/12 00:54:31;;;;;;;4.30;3.27;;;6.90;99.90;;;;;;5110873;28;20213;-79
2021/12/12 00:57:03;;;;;;;5.50;4.13;;;7.10;99.90;;;;;;5111826;28;20255;-75
2021/12/12 00:59:31;;;;;;;5.70;3.50;;;6.90;99.90;;;;;;5111840;28;20552;-76
2021/12/12 01:01:58;;;;;;;5.40;3.23;;;6.90;99.90;;;;;;5110948;28;20527;-77
2021/12/12 01:04:34;;;;;;;4.87;3.63;;;7.00;99.90;;;;;;5110555;28;20189;-81
2021/12/12 01:07:04;;;;;;;4.67;3.33;;;7.00;99.90;;;;;;5110534;28;20182;-79
2021/12/12 01:09:40;;;;;;;4.60;2.70;;;6.90;99.90;;;;;;5111827;28;20171;-80
2021/12/12 01:12:10;;;;;;;5.70;3.50;;;6.90;99.90;;;;;;5112013;28;20256;-80
2021/12/12 01:14:41;;;;;;;5.93;3.43;;;6.90;99.90;;;;;;5110304;28;20206;-79
2021/12/12 01:17:12;;;;;;;4.97;3.00;;;7.00;99.90;;;;;;5111828;28;20198;-80
2021/12/12 01:19:42;;;;;;;4.63;3.43;;;7.10;99.90;;;;;;5093202;28;20187;-78
2021/12/12 01:22:17;;;;;;;4.80;3.07;;;7.00;99.90;;;;;;5094317;28;20682;-76
2021/12/12 01:24:47;;;;;;;5.30;3.10;;;7.00;99.90;;;;;;5095629;28;20206;-78
2021/12/12 01:27:14;;;;;;;7.77;3.63;;;7.00;99.90;;;;;;5093492;28;20634;-77
2021/12/12 01:29:41;;;;;;;4.23;3.27;;;7.00;99.90;;;;;;5110570;28;20636;-76
2021/12/12 01:32:20;;;;;;;4.73;3.50;;;6.90;99.90;;;;;;5110440;28;20190;-77
2021/12/12 01:34:50;;;;;;;7.67;3.07;;;6.90;99.90;;;;;;5111322;28;20213;-76
2021/12/12 01:37:39;;;;;;;6.10;4.07;;;7.00;99.90;;;;;;5110013;28;20215;-76
2021/12/12 01:40:15;;;;;;;4.50;3.07;;;7.00;99.90;;;;;;5110402;28;20197;-79
2021/12/12 01:42:45;;;;;;;5.70;3.10;;;7.00;99.90;;;;;;5102305;28;20174;-76
2021/12/12 01:45:32;;;;;;;5.27;3.10;;;7.00;99.90;;;;;;5075779;28;20188;-77
2021/12/12 01:48:06;;;;;;;3.03;2.73;;;6.90;99.90;;;;;;5095325;28;20179;-79
2021/12/12 01:50:43;;;;;;;5.37;2.70;;;7.00;99.90;;;;;;5110743;28;20183;-79
2021/12/12 01:53:13;;;;;;;3.83;2.63;;;7.00;99.90;;;;;;5097277;28;20181;-78
2021/12/12 01:55:46;;;;;;;5.47;3.33;;;7.00;99.90;;;;;;5115484;28;20206;-80
2021/12/12 01:58:15;;;;;;;6.37;3.63;;;7.00;99.90;;;;;;5097383;28;20171;-76
2021/12/12 02:00:48;;;;;;;4.60;3.20;;;7.00;99.90;;;;;;5114309;28;20669;-77
2021/12/12 02:03:18;;;;;;;7.17;3.00;;;7.00;99.90;;;;;;5108293;28;20173;-78
2021/12/12 02:05:44;;;;;;;5.00;3.43;;;7.00;99.90;;;;;;5114075;28;20179;-79
2021/12/12 02:08:15;;;;;;;4.57;2.90;;;7.00;99.90;;;;;;5114097;28;20187;-79
2021/12/12 02:10:51;;;;;;;4.00;3.20;;;7.00;99.90;;;;;;5115096;28;20186;-77
2021/12/12 02:13:19;;;;;;;6.77;3.30;;;6.90;99.90;;;;;;5115076;28;20283;-79
2021/12/12 02:15:47;;;;;;;6.17;3.10;;;7.00;99.90;;;;;;5113684;28;20696;-76
2021/12/12 02:18:17;;;;;;;4.00;3.07;;;7.00;99.90;;;;;;5115033;28;20178;-80
2021/12/12 02:21:18;;;;;;;4.53;2.80;;;6.80;99.90;;;;;;5114292;28;20739;-77
2021/12/12 02:35:18;;;;;;;4.60;2.13;;;6.90;99.90;;;;;;5099414;28;20198;-77
2021/12/12 02:37:45;;;;;;;5.30;2.90;;;6.80;99.90;;;;;;5115202;28;20163;-80
2021/12/12 02:40:17;;;;;;;4.20;2.10;;;6.90;99.90;;;;;;5113798;28;20164;-79
2021/12/12 02:42:43;;;;;;;4.83;2.30;;;6.80;99.90;;;;;;5096596;28;20252;-77
2021/12/12 02:45:10;;;;;;;2.20;1.47;;;6.70;99.90;;;;;;5113263;28;20178;-79
2021/12/12 02:47:37;;;;;;;2.00;1.43;;;6.50;99.90;;;;;;5119849;27;20186;-80
2021/12/12 02:50:15;;;;;;;4.93;2.27;;;6.40;99.90;;;;;;5117105;27;20258;-81
2021/12/12 02:52:49;;;;;;;4.37;1.73;;;6.40;99.90;;;;;;5113672;28;20707;-80
2021/12/12 02:55:26;;;;;;;3.57;1.50;;;6.60;99.90;;;;;;5114587;28;20201;-80
2021/12/12 02:57:53;;;;;;;4.57;1.77;;;6.70;99.90;;;;;;5133791;27;20200;-80
2021/12/12 03:00:23;;;;;;;2.60;1.90;;;6.80;99.90;;;;;;5123253;27;20174;-77
2021/12/12 03:02:56;;;;;;;2.97;2.07;;;6.90;99.90;;;;;;5125982;27;20174;-80
2021/12/12 03:05:24;;;;;;;4.47;2.10;;;6.80;99.90;;;;;;5106177;28;20179;-79
2021/12/12 03:07:50;;;;;;;2.80;1.90;;;6.60;99.90;;;;;;5112748;28;20213;-80
2021/12/12 03:10:21;;;;;;;4.07;2.00;;;6.70;99.90;;;;;;5112926;28;20175;-80
2021/12/12 03:12:47;;;;;;;3.43;1.93;;;6.50;99.90;;;;;;5114383;28;20512;-76
2021/12/12 03:15:21;;;;;;;2.37;1.67;;;6.60;99.90;;;;;;5114253;28;20202;-80
2021/12/12 03:17:50;;;;;;;3.63;1.80;;;6.60;99.90;;;;;;5102407;28;20178;-81
2021/12/12 03:20:24;;;;;;;4.70;2.30;;;6.70;99.90;;;;;;5095832;28;20240;-80
2021/12/12 03:22:56;;;;;;;2.83;1.87;;;6.80;99.90;;;;;;5114129;28;20254;-77
2021/12/12 03:25:22;;;;;;;2.73;1.83;;;6.80;99.90;;;;;;5112350;28;20199;-80
2021/12/12 03:27:50;;;;;;;3.83;1.90;;;6.70;99.90;;;;;;5079448;28;20525;-79
2021/12/12 03:30:17;;;;;;;2.63;1.90;;;6.80;99.90;;;;;;5114330;28;20167;-76
2021/12/12 03:32:45;;;;;;;3.27;2.00;;;6.80;99.90;;;;;;5113941;28;20179;-78
2021/12/12 03:35:11;;;;;;;2.20;1.77;;;6.60;99.90;;;;;;5112119;28;20206;-82
2021/12/12 03:37:39;;;;;;;3.63;2.30;;;6.60;99.90;;;;;;5112881;28;20187;-80
2021/12/12 03:40:16;;;;;;;4.23;2.20;;;6.60;99.90;;;;;;5095460;28;20288;-77
2021/12/12 03:42:45;;;;;;;3.33;1.80;;;6.60;99.90;;;;;;5112537;28;20250;-75
2021/12/12 03:45:13;;;;;;;4.33;2.10;;;6.60;99.90;;;;;;5112543;28;20241;-78
2021/12/12 03:47:45;;;;;;;4.07;2.40;;;6.50;99.90;;;;;;5095650;28;20243;-76
2021/12/12 03:50:17;;;;;;;3.73;2.13;;;6.50;99.90;;;;;;5112046;28;20216;-77
2021/12/12 03:52:44;;;;;;;4.50;1.80;;;6.50;99.90;;;;;;5113707;28;20235;-77
2021/12/12 03:55:11;;;;;;;3.23;1.67;;;6.50;99.90;;;;;;5112144;28;20226;-77
2021/12/12 03:57:38;;;;;;;4.33;1.90;;;6.60;99.90;;;;;;5111977;28;20528;-76
2021/12/12 04:00:09;;;;;;;4.27;2.23;;;6.50;99.90;;;;;;5111946;28;20250;-77
2021/12/12 04:02:35;;;;;;;3.70;1.73;;;6.50;99.90;;;;;;5078829;28;20637;-82
2021/12/12 04:05:01;;;;;;;2.77;1.57;;;6.60;99.90;;;;;;5113139;28;20262;-77
2021/12/12 04:07:29;;;;;;;5.10;2.10;;;6.60;99.90;;;;;;5112084;28;20186;-76
2021/12/12 04:09:57;;;;;;;4.53;1.93;;;6.50;99.90;;;;;;5112249;28;20171;-77
2021/12/12 04:12:24;;;;;;;6.00;2.10;;;6.40;99.90;;;;;;5112826;28;20171;-76
2021/12/12 04:14:52;;;;;;;3.37;1.77;;;6.30;99.90;;;;;;5112858;28;20642;-79
2021/12/12 04:17:21;;;;;;;5.87;2.17;;;6.20;99.90;;;;;;5111591;28;20304;-80
2021/12/12 04:19:50;;;;;;;3.47;2.30;;;6.20;99.90;;;;;;5113094;28;20159;-77
2021/12/12 04:22:16;;;;;;;3.23;2.23;;;6.40;99.90;;;;;;5111361;28;20220;-77
2021/12/12 04:24:49;;;;;;;4.20;2.00;;;6.20;99.90;;;;;;5112865;28;20199;-78
2021/12/12 04:27:16;;;;;;;3.93;2.23;;;6.30;99.90;;;;;;5111452;28;20175;-80
2021/12/12 04:29:45;;;;;;;3.57;2.10;;;6.10;99.90;;;;;;5094505;28;20207;-77
2021/12/12 04:32:21;;;;;;;5.57;2.30;;;6.10;99.90;;;;;;5111987;28;20168;-77
2021/12/12 04:35:11;;;;;;;3.97;2.23;;;6.10;99.90;;;;;;5111238;28;20609;-78
2021/12/12 04:37:38;;;;;;;2.60;1.80;;;6.00;99.90;;;;;;5112472;28;20155;-78
2021/12/12 04:40:08;;;;;;;4.10;2.07;;;6.00;99.90;;;;;;5094512;28;20547;-81
2021/12/12 04:42:37;;;;;;;4.57;2.30;;;6.00;99.90;;;;;;5111311;28;20156;-77
2021/12/12 04:45:31;;;;;;;5.10;1.90;;;5.90;99.90;;;;;;5112802;28;20175;-80
2021/12/12 04:50:59;;;;;;;5.20;2.60;;;5.70;99.90;;;;;;5112300;28;20204;-75
2021/12/12 04:53:58;;;;;;;2.77;2.10;;;5.70;99.90;;;;;;5094618;28;20266;-79
2021/12/12 04:56:35;;;;;;;3.63;2.33;;;5.70;99.90;;;;;;5112589;28;20528;-80
2021/12/12 04:59:10;;;;;;;3.23;1.80;;;5.70;99.90;;;;;;5094330;28;20199;-77
2021/12/12 05:01:44;;;;;;;3.10;2.00;;;5.80;99.90;;;;;;5112573;28;20681;-80
2021/12/12 05:04:28;;;;;;;2.93;2.00;;;5.80;99.90;;;;;;5101573;27;20656;-77
2021/12/12 05:07:03;;;;;;;3.87;2.30;;;5.70;99.90;;;;;;5104470;27;20194;-78
2021/12/12 05:09:50;;;;;;;4.43;2.47;;;5.90;99.90;;;;;;5105951;27;20185;-80
2021/12/12 05:12:25;;;;;;;3.87;2.33;;;5.80;99.90;;;;;;5108394;28;20174;-77
2021/12/12 05:15:07;;;;;;;4.03;1.77;;;5.70;99.90;;;;;;5110538;28;20195;-77
2021/12/12 05:17:41;;;;;;;3.23;2.33;;;5.60;99.90;;;;;;5095167;28;20201;-81
2021/12/12 05:20:12;;;;;;;3.97;2.20;;;5.60;99.90;;;;;;5094378;28;20533;-77
2021/12/12 05:22:48;;;;;;;3.47;1.90;;;5.50;99.90;;;;;;5110663;28;20171;-81
2021/12/12 05:25:18;;;;;;;3.90;2.23;;;5.40;99.90;;;;;;5130921;28;20267;-82
2021/12/12 05:27:47;;;;;;;4.10;2.13;;;5.40;99.90;;;;;;5130981;28;20170;-80
2021/12/12 05:30:20;;;;;;;4.07;2.13;;;5.40;99.90;;;;;;5096861;28;20619;-81
2021/12/12 05:32:51;;;;;;;3.80;2.20;;;5.30;99.90;;;;;;5131697;28;20227;-80
2021/12/12 05:35:19;;;;;;;4.80;1.97;;;5.20;99.90;;;;;;5113918;28;20243;-80
2021/12/12 05:37:52;;;;;;;3.17;2.37;;;5.30;99.90;;;;;;5131866;28;20621;-81
2021/12/12 05:40:20;;;;;;;5.13;2.73;;;5.30;99.90;;;;;;5132719;27;20166;-81
2021/12/12 05:42:46;;;;;;;3.70;1.83;;;5.30;99.90;;;;;;5132942;27;20159;-80
2021/12/12 05:45:14;;;;;;;3.07;2.07;;;5.20;99.90;;;;;;5123497;28;20250;-78
2021/12/12 05:47:40;;;;;;;3.23;2.37;;;5.30;99.90;;;;;;5111771;28;20274;-78
2021/12/12 05:50:08;;;;;;;3.20;2.00;;;5.30;99.90;;;;;;5112041;28;20308;-80
2021/12/12 05:52:35;;;;;;;3.03;2.00;;;5.30;99.90;;;;;;5093764;28;20179;-79
2021/12/12 05:55:04;;;;;;;2.80;2.17;;;5.40;99.90;;;;;;5110114;28;20202;-80
2021/12/12 05:57:30;;;;;;;3.50;2.00;;;5.40;99.90;;;;;;5093447;28;20175;-78
2021/12/12 05:59:57;;;;;;;2.87;1.93;;;5.30;99.90;;;;;;5110065;28;20172;-80
2021/12/12 06:02:25;;;;;;;2.67;1.93;;;5.40;99.90;;;;;;5110634;28;20167;-76
2021/12/12 06:04:55;;;;;;;3.40;2.27;;;5.50;99.90;;;;;;5110146;28;20750;-76
2021/12/12 06:07:21;;;;;;;3.83;2.00;;;5.40;99.90;;;;;;5111573;28;20187;-77
2021/12/12 06:09:49;;;;;;;2.73;2.20;;;5.30;99.90;;;;;;5110058;28;20632;-77
2021/12/12 06:12:16;;;;;;;5.00;2.27;;;5.20;99.90;;;;;;5111479;28;20539;-81
2021/12/12 06:14:43;;;;;;;3.17;2.00;;;5.50;99.90;;;;;;5110141;28;20665;-81
2021/12/12 06:17:12;;;;;;;2.40;2.00;;;5.30;99.90;;;;;;5110025;28;20183;-80
2021/12/12 06:19:39;;;;;;;2.07;1.77;;;5.20;99.90;;;;;;5110121;28;20175;-77
2021/12/12 06:22:06;;;;;;;6.90;2.17;;;5.30;99.90;;;;;;5093944;28;20186;-77
2021/12/12 06:24:33;;;;;;;3.77;2.20;;;5.30;99.90;;;;;;5093736;28;20175;-77
2021/12/12 06:27:15;;;;;;;4.67;2.50;;;5.30;99.90;;;;;;5110168;28;20171;-80
2021/12/12 06:29:42;;;;;;;3.70;2.47;;;5.40;99.90;;;;;;5111420;28;20228;-79
2021/12/12 06:32:08;;;;;;;4.73;2.50;;;5.40;99.90;;;;;;5079611;28;20171;-77
2021/12/12 06:34:34;;;;;;;3.00;2.40;;;5.40;99.90;;;;;;5114188;28;20579;-77
2021/12/12 06:37:01;;;;;;;2.90;2.33;;;5.40;99.90;;;;;;5114646;28;20163;-80
2021/12/12 06:39:27;;;;;;;7.83;2.20;;;5.30;99.90;;;;;;5113629;28;20193;-80
2021/12/12 06:41:53;;;;;;;4.90;2.40;;;5.40;99.90;;;;;;5113590;28;20168;-77
2021/12/12 06:44:19;;;;;;;3.87;1.80;;;5.40;99.90;;;;;;5114699;28;20175;-76
2021/12/12 06:46:45;;;;;;;2.93;2.23;;;5.30;99.90;;;;;;5113130;28;20187;-79
2021/12/12 06:49:14;;;;;;;2.73;2.00;;;5.30;99.90;;;;;;5113228;28;20191;-76
2021/12/12 06:51:49;;;;;;;2.97;2.00;;;5.20;99.90;;;;;;5114885;28;20243;-80
2021/12/12 06:54:17;;;;;;;3.07;2.13;;;5.20;99.90;;;;;;5096392;28;20199;-79
2021/12/12 06:56:46;;;;;;;4.60;2.50;;;5.20;99.90;;;;;;5114310;28;20687;-77
2021/12/12 06:59:12;;;;;;;3.57;2.83;;;5.30;99.90;;;;;;5113202;28;20246;-81
2021/12/12 07:01:39;;;;;;;2.73;2.27;;;5.20;99.90;;;;;;5096194;28;20233;-81
2021/12/12 07:04:08;;;;;;;2.93;2.43;;;5.20;99.90;;;;;;5096257;28;20172;-76
2021/12/12 07:06:36;;;;;;;5.73;2.73;;;5.10;99.90;;;;;;5096487;28;20167;-80
2021/12/12 07:09:05;;;;;;;5.03;2.80;;;5.10;99.90;;;;;;5113549;28;20698;-80
2021/12/12 07:11:32;;;;;;;4.57;2.23;;;5.10;99.90;;;;;;5113216;28;20181;-81
2021/12/12 07:13:59;;;;;;;3.50;2.43;;;5.10;99.90;;;;;;5114567;28;20201;-77
2021/12/12 07:16:25;;;;;;;3.07;2.30;;;5.10;99.90;;;;;;5113254;28;20163;-81
2021/12/12 07:18:54;;;;;;;3.97;2.93;;;5.00;99.90;;;;;;5096769;28;20176;-76
2021/12/12 07:21:21;;;;;;;3.73;2.70;;;5.20;99.90;;;;;;5112933;28;20182;-76
2021/12/12 07:23:49;;;;;;;3.77;2.47;;;5.20;99.90;;;;;;5096090;28;20174;-76
2021/12/12 07:26:17;;;;;;;3.80;2.57;;;5.20;99.90;;;;;;5095694;28;20657;-81
2021/12/12 07:28:44;;;;;;;3.10;2.20;;;5.20;99.90;;;;;;5112870;28;20186;-77
2021/12/12 07:31:15;;;;;;;3.37;2.47;;;5.20;99.90;;;;;;5113935;28;20688;-76
2021/12/12 07:33:42;;;;;;;3.47;2.23;;;5.20;99.90;;;;;;5112695;28;20179;-76
2021/12/12 07:36:11;;;;;;;4.67;2.40;;;5.20;99.90;;;;;;5113544;28;20272;-76
2021/12/12 07:38:41;;;;;;;3.40;2.17;;;5.00;99.90;;;;;;5112438;28;20171;-80
2021/12/12 07:41:09;;;;;;;5.37;2.13;;;5.10;99.90;;;;;;5112137;28;20176;-76
2021/12/12 07:43:35;;;;;;;3.93;2.23;;;5.10;99.90;;;;;;5111204;28;20171;-79
2021/12/12 07:46:03;;;;;;;3.77;2.53;;;5.10;99.90;;;;;;5078064;28;20182;-80
2021/12/12 07:48:29;;;;;;;4.00;2.57;;;5.20;99.90;;;;;;5115042;27;20267;-77
2021/12/12 07:50:58;;;;;;;5.60;2.77;;;5.20;99.90;;;;;;5111742;28;20171;-80
2021/12/12 07:53:26;;;;;;;3.30;2.27;;;5.20;99.90;;;;;;5109565;27;20183;-77
2021/12/12 07:55:54;;;;;;;3.30;2.23;;;5.20;99.90;;;;;;5116408;27;20289;-77
2021/12/12 07:58:21;;;;;;;3.40;2.50;;;5.20;99.90;;;;;;5132256;27;20175;-80
2021/12/12 08:00:49;;;;;;;4.03;2.57;;;5.40;99.90;;;;;;5125329;27;20207;-80
2021/12/12 08:03:24;;;;;;;2.97;2.37;;;5.30;99.90;;;;;;5078175;28;20172;-80
2021/12/12 08:05:52;;;;;;;3.63;2.33;;;5.30;99.90;;;;;;5111777;28;20178;-76
2021/12/12 08:08:19;;;;;;;6.63;1.73;;;5.30;99.90;;;;;;5095101;28;20190;-76
2021/12/12 08:10:49;;;;;;;2.97;2.60;;;5.50;99.90;;;;;;5111580;28;20572;-76
2021/12/12 08:13:18;;;;;;;2.90;2.20;;;5.60;99.90;;;;;;5074487;28;20288;-77
2021/12/12 08:15:45;;;;;;;2.53;2.13;;;5.70;99.90;;;;;;5074076;28;20219;-75
2021/12/12 08:18:15;;;;;;;2.13;1.90;;;5.60;99.90;;;;;;5091782;28;20176;-80
2021/12/12 08:20:45;;;;;;;3.67;2.00;;;5.70;99.90;;;;;;5090788;28;20171;-80
2021/12/12 08:23:13;;;;;;;3.30;2.10;;;5.70;99.90;;;;;;5091035;28;20214;-80
2021/12/12 08:25:42;;;;;;;3.00;2.10;;;5.70;99.90;;;;;;5092237;28;20694;-77
2021/12/12 08:28:12;;;;;;;4.37;2.20;;;5.70;99.90;;;;;;5090625;28;20266;-79
2021/12/12 08:30:42;;;;;;;2.60;2.00;;;5.70;99.90;;;;;;5104661;28;20178;-80
2021/12/12 08:33:08;;;;;;;3.43;2.30;;;5.70;99.90;;;;;;5080120;28;20187;-78
2021/12/12 08:35:36;;;;;;;3.17;2.40;;;5.80;99.90;;;;;;5096796;28;20203;-77
2021/12/12 08:38:05;;;;;;;3.57;2.00;;;5.90;99.90;;;;;;5094000;28;20172;-81
2021/12/12 08:40:36;;;;;;;2.57;2.13;;;6.00;99.90;;;;;;5092420;28;20332;-78
2021/12/12 08:43:08;;;;;;;5.83;2.60;;;6.20;99.90;;;;;;5098533;28;20183;-80
2021/12/12 08:45:35;;;;;;;3.43;1.73;;;6.20;99.90;;;;;;5099743;28;20179;-78
2021/12/12 08:48:03;;;;;;;2.33;1.83;;;6.00;99.90;;;;;;5099622;27;20202;-80
2021/12/12 08:50:35;;;;;;;3.53;1.80;;;6.10;99.90;;;;;;5101395;28;20259;-76
2021/12/12 08:53:02;;;;;;;2.30;1.83;;;6.10;99.90;;;;;;5095702;28;20609;-76
2021/12/12 08:55:36;;;;;;;3.43;2.00;;;6.10;99.90;;;;;;5093530;28;20677;-77
2021/12/12 08:58:14;;;;;;;2.30;1.60;;;6.20;99.90;;;;;;5101023;28;20175;-77
2021/12/12 09:00:52;;;;;;;1.87;1.53;;;6.10;99.90;;;;;;5092222;28;20175;-76
2021/12/12 09:03:36;;;;;;;2.53;1.37;;;6.20;99.90;;;;;;5078823;28;20175;-80
2021/12/12 09:06:04;;;;;;;3.33;1.70;;;6.40;99.90;;;;;;5104826;28;20195;-77
2021/12/12 09:09:00;;;;;;;2.03;1.53;;;6.20;99.90;;;;;;5090397;28;20196;-77
2021/12/12 09:12:14;;;;;;;3.43;1.63;;;6.20;99.90;;;;;;5102566;28;20214;-77
2021/12/12 09:14:47;;;;;;;3.10;1.90;;;6.30;99.90;;;;;;5087586;28;20211;-80
2021/12/12 09:17:20;;;;;;;2.33;1.40;;;6.30;99.90;;;;;;5081539;28;20249;-80
2021/12/12 09:19:56;;;;;;;1.90;1.50;;;6.30;99.90;;;;;;5096256;28;20171;-76
2021/12/12 09:22:41;;;;;;;2.70;1.50;;;6.30;99.90;;;;;;5101814;28;20206;-80
2021/12/12 09:25:24;;;;;;;2.13;1.40;;;6.20;99.90;;;;;;5094673;28;20257;-76
2021/12/12 09:27:59;;;;;;;1.97;1.50;;;6.20;99.90;;;;;;5096290;28;20186;-79
2021/12/12 09:30:26;;;;;;;1.67;1.30;;;6.20;99.90;;;;;;5095849;28;20171;-77
2021/12/12 09:33:12;;;;;;;1.70;1.47;;;6.20;99.90;;;;;;5098369;28;20194;-80
2021/12/12 09:35:49;;;;;;;1.90;1.60;;;6.20;99.90;;;;;;5079609;28;20215;-80
2021/12/12 09:38:32;;;;;;;2.73;1.50;;;6.50;99.90;;;;;;5096818;28;20644;-81
2021/12/12 09:41:17;;;;;;;4.00;1.30;;;6.40;99.90;;;;;;5075643;28;20191;-79
2021/12/12 09:43:52;;;;;;;1.97;1.30;;;6.30;99.90;;;;;;5101106;28;20541;-81
2021/12/12 09:47:30;;;;;;;3.43;1.33;;;6.50;99.90;;;;;;5099549;28;20658;-77
2021/12/12 09:53:23;;;;;;;3.27;1.50;;;6.40;99.90;;;;;;5016254;28;20238;-78
2021/12/12 09:56:17;;;;;;;3.60;1.30;;;6.50;99.90;;;;;;5108310;28;20662;-78
2021/12/12 09:59:01;;;;;;;1.30;1.10;;;6.50;99.90;;;;;;5098634;28;20180;-80
2021/12/12 10:02:11;;;;;;;4.20;1.50;;;6.80;99.90;;;;;;5108549;28;20194;-79
2021/12/12 10:04:49;;;;;;;2.03;1.40;;;7.00;99.90;;;;;;5061304;28;20737;-80
2021/12/12 10:07:42;;;;;;;1.50;1.40;;;7.10;99.90;;;;;;5044906;28;20660;-78
2021/12/12 10:10:14;;;;;;;5.47;1.30;;;7.00;99.90;;;;;;5088728;28;20195;-79
2021/12/12 10:12:48;;;;;;;1.90;1.70;;;6.90;99.90;;;;;;5100462;28;20171;-77
2021/12/12 10:15:21;;;;;;;4.70;2.40;;;6.50;99.90;;;;;;5099450;28;20231;-79
2021/12/12 10:18:06;;;;;;;1.97;1.23;;;6.40;99.90;;;;;;5101119;28;20182;-77
2021/12/12 10:20:41;;;;;;;1.70;1.20;;;6.40;99.90;;;;;;5100991;28;20241;-77
2021/12/12 10:23:15;;;;;;;1.43;1.17;;;6.60;99.90;;;;;;5094449;28;20179;-81
2021/12/12 10:25:53;;;;;;;1.60;1.10;;;6.60;99.90;;;;;;5074096;28;20198;-81
2021/12/12 10:29:00;;;;;;;3.73;1.10;;;6.60;99.90;;;;;;5074471;28;20172;-78
2021/12/12 10:31:53;;;;;;;1.40;1.27;;;7.00;99.90;;;;;;5094695;28;20187;-80
2021/12/12 10:34:25;;;;;;;3.43;1.40;;;7.00;99.90;;;;;;5092914;28;20229;-76
2021/12/12 10:37:02;;;;;;;3.67;1.37;;;7.00;99.90;;;;;;5078828;28;20182;-76
2021/12/12 10:39:38;;;;;;;1.83;1.17;;;6.90;99.90;;;;;;5098096;28;20183;-80
2021/12/12 10:42:14;;;;;;;2.03;1.23;;;6.90;99.90;;;;;;5081203;28;20198;-77
2021/12/12 10:45:03;;;;;;;2.53;1.13;;;7.20;99.90;;;;;;5097159;28;20211;-78
2021/12/12 10:47:38;;;;;;;2.53;1.40;;;7.10;99.90;;;;;;5076422;28;20199;-80
2021/12/12 10:50:30;;;;;;;1.07;0.90;;;7.40;99.90;;;;;;5093843;28;20180;-78
2021/12/12 10:53:16;;;;;;;1.50;1.00;;;7.50;99.90;;;;;;5079449;28;20176;-80
2021/12/12 10:55:42;;;;;;;1.10;1.00;;;7.40;99.90;;;;;;5097158;28;20214;-75
2021/12/12 10:58:11;;;;;;;2.67;1.43;;;7.50;99.90;;;;;;5098301;28;20180;-74
2021/12/12 11:00:43;;;;;;;1.70;1.17;;;7.50;99.90;;;;;;5097324;28;20180;-75
2021/12/12 11:03:23;;;;;;;1.37;0.97;;;7.50;99.90;;;;;;5094204;28;20970;-76
2021/12/12 11:06:04;;;;;;;2.30;1.00;;;7.50;99.90;;;;;;5078738;28;20210;-78
2021/12/12 11:08:45;;;;;;;2.07;1.00;;;7.70;99.90;;;;;;5092678;28;20189;-77
2021/12/12 11:11:19;;;;;;;2.20;1.10;;;7.80;99.90;;;;;;5106006;27;20183;-77
2021/12/12 11:14:05;;;;;;;1.80;1.33;;;7.90;99.90;;;;;;5101274;28;20775;-78
2021/12/12 11:16:46;;;;;;;2.10;1.10;;;8.00;99.90;;;;;;5104646;28;20191;-76
2021/12/12 11:19:14;;;;;;;3.07;1.50;;;8.00;99.90;;;;;;5102886;28;20175;-83
2021/12/12 11:21:46;;;;;;;2.37;1.40;;;8.00;99.90;;;;;;5102152;28;20229;-76
2021/12/12 11:24:32;;;;;;;1.97;1.20;;;7.90;99.90;;;;;;5082949;28;20550;-78
2021/12/12 11:27:12;;;;;;;1.37;1.20;;;7.90;99.90;;;;;;5094984;28;20195;-78
2021/12/12 11:30:06;;;;;;;1.70;1.00;;;7.80;99.90;;;;;;5099604;28;20661;-82
2021/12/12 11:32:35;;;;;;;2.77;1.33;;;8.00;99.90;;;;;;5095116;28;20176;-80
2021/12/12 11:35:04;;;;;;;1.83;1.20;;;8.20;99.90;;;;;;5096449;28;20203;-77
2021/12/12 11:37:50;;;;;;;1.70;1.30;;;8.20;99.90;;;;;;5106844;28;20243;-79
2021/12/12 11:40:28;;;;;;;2.67;1.07;;;8.00;99.90;;;;;;5109501;28;20273;-79
2021/12/12 11:43:24;;;;;;;1.90;1.30;;;8.00;99.90;;;;;;5098181;28;20187;-77
2021/12/12 11:46:00;;;;;;;4.17;1.30;;;8.00;99.90;;;;;;5092778;28;20559;-77
2021/12/12 11:49:02;;;;;;;1.27;0.93;;;8.00;99.90;;;;;;5086290;28;20319;-77
2021/12/12 11:51:33;;;;;;;1.77;1.10;;;7.90;99.90;;;;;;5085192;28;20199;-77
2021/12/12 11:54:10;;;;;;;1.67;1.10;;;7.90;99.90;;;;;;5091322;28;20275;-77
2021/12/12 11:56:53;;;;;;;3.13;1.03;;;7.90;99.90;;;;;;5091190;28;20536;-77
2021/12/12 11:59:31;;;;;;;1.83;1.20;;;8.00;99.90;;;;;;5100843;28;20236;-76
2021/12/12 12:02:05;;;;;;;1.20;1.10;;;8.00;99.90;;;;;;5098741;28;20258;-78
2021/12/12 12:04:53;;;;;;;1.60;1.30;;;7.80;99.90;;;;;;5101616;28;20167;-76
2021/12/12 12:08:09;;;;;;;1.77;1.17;;;8.00;99.90;;;;;;5096327;28;20178;-78
2021/12/12 12:10:51;;;;;;;1.77;1.10;;;8.00;99.90;;;;;;5093693;28;20274;-77
2021/12/12 12:13:44;;;;;;;1.60;1.30;;;8.10;99.90;;;;;;5099666;28;20176;-77
2021/12/12 12:16:42;;;;;;;1.90;1.40;;;8.30;99.90;;;;;;5088420;28;20258;-78
2021/12/12 12:19:43;;;;;;;1.60;1.17;;;8.40;99.90;;;;;;5094371;28;20223;-85
2021/12/12 12:22:25;;;;;;;1.90;1.40;;;8.20;99.90;;;;;;5092755;28;20177;-78
2021/12/12 12:25:18;;;;;;;1.50;1.33;;;8.00;99.90;;;;;;5092337;28;20263;-78
2021/12/12 12:27:58;;;;;;;1.90;1.30;;;8.20;99.90;;;;;;5088710;28;20199;-78
2021/12/12 12:31:09;;;;;;;1.27;1.00;;;8.10;99.90;;;;;;5104070;27;20229;-76
2021/12/12 12:33:59;;;;;;;2.63;0.97;;;8.20;99.90;;;;;;5101502;28;20174;-77
2021/12/12 12:36:37;;;;;;;1.73;1.20;;;8.30;99.90;;;;;;5107552;28;20202;-79
2021/12/12 12:39:15;;;;;;;1.57;1.20;;;8.40;99.90;;;;;;5101977;28;20174;-79
2021/12/12 12:42:02;;;;;;;1.10;1.00;;;8.20;99.90;;;;;;5105543;28;20167;-78
2021/12/12 12:44:49;;;;;;;2.93;1.10;;;8.10;99.90;;;;;;5090675;28;20614;-77
2021/12/12 12:47:40;;;;;;;1.20;1.00;;;8.10;99.90;;;;;;5108446;28;20183;-79
2021/12/12 12:50:43;;;;;;;1.10;1.00;;;8.20;99.90;;;;;;5104010;28;20172;-75
2021/12/12 12:53:51;;;;;;;1.73;1.20;;;8.10;99.90;;;;;;5097121;28;20674;-78
2021/12/12 12:56:54;;;;;;;1.47;1.00;;;7.70;99.90;;;;;;5100547;28;20202;-76
2021/12/12 12:59:50;;;;;;;3.57;1.10;;;7.70;99.90;;;;;;5095503;28;20179;-76
2021/12/12 13:02:24;;;;;;;1.03;0.93;;;7.90;99.90;;;;;;5103992;28;20178;-81
2021/12/12 13:05:29;;;;;;;1.53;1.30;;;8.10;99.90;;;;;;5098478;28;20190;-76
2021/12/12 13:08:34;;;;;;;4.20;1.43;;;8.00;99.90;;;;;;5105511;28;20186;-80
2021/12/12 13:11:02;;;;;;;2.43;1.37;;;8.10;99.90;;;;;;5106352;28;20265;-78
2021/12/12 13:13:50;;;;;;;1.93;1.03;;;8.30;99.90;;;;;;5110087;28;20255;-78
2021/12/12 13:16:30;;;;;;;3.47;1.20;;;8.50;99.90;;;;;;5088749;28;20211;-76
2021/12/12 13:19:13;;;;;;;1.17;1.07;;;8.50;99.90;;;;;;5094772;28;20260;-77
2021/12/12 13:21:46;;;;;;;2.50;1.20;;;8.20;99.90;;;;;;5108464;28;20199;-78
2021/12/12 13:24:40;;;;;;;1.33;0.97;;;8.40;99.90;;;;;;5097848;28;20245;-75
2021/12/12 13:27:59;;;;;;;1.33;1.20;;;8.30;99.90;;;;;;5097102;28;20187;-79
2021/12/12 13:30:41;;;;;;;1.57;1.20;;;8.10;99.90;;;;;;5089221;28;20190;-79
2021/12/12 13:33:23;;;;;;;1.00;0.90;;;8.10;99.90;;;;;;5091162;28;20714;-79
2021/12/12 13:36:23;;;;;;;2.90;1.53;;;8.20;99.90;;;;;;5100971;28;20712;-76
2021/12/12 13:38:50;;;;;;;1.90;1.03;;;8.10;99.90;;;;;;5098456;28;20534;-74
2021/12/12 13:41:30;;;;;;;1.43;1.00;;;8.20;99.90;;;;;;5104711;28;20172;-75
2021/12/12 13:44:08;;;;;;;2.03;1.20;;;8.20;99.90;;;;;;5105319;28;20179;-77
2021/12/12 13:46:43;;;;;;;1.70;0.97;;;8.40;99.90;;;;;;5114007;28;20222;-80
2021/12/12 13:49:26;;;;;;;2.23;1.30;;;8.40;99.90;;;;;;5101969;28;20179;-75
2021/12/12 13:51:55;;;;;;;1.93;1.40;;;8.10;99.90;;;;;;5103006;28;20226;-80
2021/12/12 13:54:46;;;;;;;1.73;1.10;;;8.10;99.90;;;;;;5111580;28;20303;-77
2021/12/12 13:57:28;;;;;;;1.77;1.10;;;8.10;99.90;;;;;;5095173;28;20175;-77